NORTHERN QUEENS  -  Heat Advisory Heat Advisory     Flash Flood Watch Flash Flood Watch     Rip Current Statement Rip Current Statement        SOUTHERN QUEENS  -  Heat Advisory Heat Advisory     Flash Flood Watch Flash Flood Watch     Rip Current Statement Rip Current Statement        NORTHERN NASSAU  -  Flash Flood Watch Flash Flood Watch     Rip Current Statement Rip Current Statement        SOUTHERN NASSAU  -  Flash Flood Watch Flash Flood Watch     Rip Current Statement Rip Current Statement        NORTHEAST SUFFOLK  -  Rip Current Statement Rip Current Statement        NORTHWEST SUFFOLK  -  Rip Current Statement Rip Current Statement        SOUTHEAST SUFFOLK  -  Rip Current Statement Rip Current Statement        SOUTHWEST SUFFOLK  -  Rip Current Statement Rip Current Statement      

Active alerts

Northern Queens
  Details for Northern Queens Heat Advisory  +2 additional alerts
Southern Queens
  Details for Southern Queens Heat Advisory  +2 additional alerts
Northern Nassau
  Details for Northern Nassau Flash Flood Watch  +1 additional alert
Southern Nassau
  Details for Southern Nassau Flash Flood Watch  +1 additional alert
Northwest Suffolk
  Details for Northwest Suffolk Rip Current Statement
Southwest Suffolk
  Details for Southwest Suffolk Rip Current Statement
Northeast Suffolk
  Details for Northeast Suffolk Rip Current Statement
Southeast Suffolk
  Details for Southeast Suffolk Rip Current Statement


WXM80 ListenWXM80 Stop

You find our weather info also at:

UK Metoffice

WeatherCloud

Weather Underground

Northeastern Weather Network

AWEKAS

Citizen Weather Observer Program (CWOP)

HAMweather, WeatherForYou, PWS Weather


Weather Underground History page Text

Daily Summary for September 8, 2016 Units:  English    Metric   Both
« Previous Day
Next Day »
Daily Weekly Monthly Yearly Custom
  High: Low: Average:
Temperature: 91.0 °F 68.5 °F 77.3 °F
Dew Point: 75.9 °F 66.7 °F 71.7 °F
Humidity: 97 % 58 % 84 %
Wind Speed: 4.3 mph 0.0 mph 1 mph
Wind Gust: 11.5 mph - -
Wind:- - SSW
Pressure: 29.91 in 29.77 in -
Precipitation: 0.00 in    
Historical Graphs
 
 
Tabular Data for September 8, 2016
Time Temperature Dew Point Pressure Wind Wind Speed Wind Gust Humidity Rainfall Rate (Hourly)
00:04 72.5 °F 70.7 °F 29.90 in Calm     94 % 0.00 in
00:09 72.5 °F 70.7 °F 29.91 in ENE 0.3 mph 1.0 mph 94 % 0.00 in
00:14 72.5 °F 70.7 °F 29.91 in Calm     94 % 0.00 in
00:19 72.5 °F 71.0 °F 29.90 in Calm   1.2 mph 95 % 0.00 in
00:25 72.5 °F 71.0 °F 29.91 in Calm   1.2 mph 95 % 0.00 in
00:30 72.5 °F 71.0 °F 29.90 in ENE 0.1 mph 1.2 mph 95 % 0.00 in
00:35 72.5 °F 71.0 °F 29.91 in Calm     95 % 0.00 in
00:40 72.5 °F 71.0 °F 29.91 in NNW 0.5 mph 3.5 mph 95 % 0.00 in
00:45 72.5 °F 70.7 °F 29.90 in NNW 0.1 mph 1.2 mph 94 % 0.00 in
00:50 72.5 °F 70.7 °F 29.90 in NNE 0.5 mph 1.2 mph 94 % 0.00 in
00:55 72.5 °F 71.0 °F 29.90 in ENE 1.9 mph 3.5 mph 95 % 0.00 in
01:00 72.4 °F 70.6 °F 29.90 in NE 1.7 mph 3.5 mph 94 % 0.00 in
01:05 72.4 °F 70.6 °F 29.90 in NNE 3.1 mph 5.0 mph 94 % 0.00 in
01:10 72.3 °F 70.5 °F 29.90 in North 1.8 mph 4.6 mph 94 % 0.00 in
01:16 72.3 °F 70.5 °F 29.90 in NNE 2.0 mph 5.0 mph 94 % 0.00 in
01:21 72.3 °F 70.5 °F 29.90 in NNE 1.1 mph 3.5 mph 94 % 0.00 in
01:26 72.2 °F 70.4 °F 29.90 in Calm   3.0 mph 94 % 0.00 in
01:31 72.2 °F 70.4 °F 29.90 in NNE 1.0 mph 3.0 mph 94 % 0.00 in
01:36 72.2 °F 70.4 °F 29.90 in North 2.5 mph 3.5 mph 94 % 0.00 in
01:41 72.2 °F 70.4 °F 29.90 in NNE 3.0 mph 5.0 mph 94 % 0.00 in
01:46 72.2 °F 70.4 °F 29.90 in North 1.0 mph 5.0 mph 94 % 0.00 in
01:51 72.3 °F 70.5 °F 29.90 in Calm   1.0 mph 94 % 0.00 in
01:56 72.3 °F 70.8 °F 29.90 in Calm   2.0 mph 95 % 0.00 in
02:01 72.4 °F 70.9 °F 29.90 in NW 1.4 mph 3.5 mph 95 % 0.00 in
02:06 72.5 °F 71.0 °F 29.91 in WNW 1.5 mph 8.1 mph 95 % 0.00 in
02:11 72.6 °F 71.1 °F 29.91 in NW 0.5 mph 2.3 mph 95 % 0.00 in
02:16 72.6 °F 71.1 °F 29.91 in WNW 1.6 mph 4.6 mph 95 % 0.00 in
02:21 72.6 °F 71.1 °F 29.91 in WNW 3.7 mph 5.8 mph 95 % 0.00 in
02:26 72.7 °F 71.2 °F 29.91 in Calm     95 % 0.00 in
02:31 72.7 °F 71.2 °F 29.90 in North 1.6 mph 3.5 mph 95 % 0.00 in
02:36 72.6 °F 70.8 °F 29.90 in NNE 1.0 mph 3.0 mph 94 % 0.00 in
02:41 72.5 °F 70.7 °F 29.90 in NNE 0.1 mph 1.2 mph 94 % 0.00 in
02:46 72.5 °F 70.7 °F 29.90 in Calm   1.2 mph 94 % 0.00 in
02:51 72.4 °F 70.3 °F 29.90 in NNE 0.4 mph   93 % 0.00 in
02:56 72.4 °F 70.3 °F 29.90 in NNE 0.2 mph 1.0 mph 93 % 0.00 in
03:01 72.3 °F 70.2 °F 29.89 in North 0.2 mph 3.5 mph 93 % 0.00 in
03:07 72.2 °F 70.1 °F 29.89 in NNE 1.1 mph 3.5 mph 93 % 0.00 in
03:12 72.2 °F 70.1 °F 29.89 in NNE 1.3 mph 3.5 mph 93 % 0.00 in
03:17 72.1 °F 70.0 °F 29.89 in NNE 1.8 mph 3.5 mph 93 % 0.00 in
03:22 72.0 °F 69.9 °F 29.90 in NNW 1.8 mph 3.5 mph 93 % 0.00 in
03:27 71.9 °F 69.8 °F 29.90 in NNW 2.0 mph 3.5 mph 93 % 0.00 in
03:32 71.8 °F 69.7 °F 29.90 in NNW 1.8 mph 3.5 mph 93 % 0.00 in
03:37 71.7 °F 69.6 °F 29.90 in North 1.7 mph 4.6 mph 93 % 0.00 in
03:42 71.7 °F 69.6 °F 29.90 in NNW 0.4 mph 3.5 mph 93 % 0.00 in
03:47 71.7 °F 69.6 °F 29.90 in WNW 2.6 mph 5.8 mph 93 % 0.00 in
03:52 71.6 °F 69.5 °F 29.89 in Calm   1.2 mph 93 % 0.00 in
03:58 71.5 °F 69.4 °F 29.89 in NW 0.4 mph 1.2 mph 93 % 0.00 in
04:08 71.4 °F 69.3 °F 29.89 in NW 0.3 mph 2.3 mph 93 % 0.00 in
04:13 71.3 °F 69.2 °F 29.88 in NNW 0.3 mph 2.3 mph 93 % 0.00 in
04:18 71.3 °F 69.2 °F 29.89 in NNW 0.3 mph 1.0 mph 93 % 0.00 in
04:23 71.2 °F 69.1 °F 29.88 in NNW 0.6 mph 1.2 mph 93 % 0.00 in
04:28 71.1 °F 69.0 °F 29.89 in Calm   1.2 mph 93 % 0.00 in
04:33 71.0 °F 68.9 °F 29.89 in Calm   2.3 mph 93 % 0.00 in
04:38 70.9 °F 68.8 °F 29.89 in NNW 0.3 mph 1.2 mph 93 % 0.00 in
04:43 70.8 °F 68.7 °F 29.89 in Calm     93 % 0.00 in
04:49 70.7 °F 68.6 °F 29.89 in Calm   1.2 mph 93 % 0.00 in
04:54 70.6 °F 68.5 °F 29.89 in North 0.4 mph 1.2 mph 93 % 0.00 in
04:59 70.5 °F 68.4 °F 29.89 in Calm   1.2 mph 93 % 0.00 in
05:04 70.4 °F 68.3 °F 29.89 in Calm     93 % 0.00 in
05:09 70.3 °F 68.2 °F 29.89 in Calm     93 % 0.00 in
05:14 70.3 °F 68.2 °F 29.89 in North 0.1 mph 1.2 mph 93 % 0.00 in
05:19 70.2 °F 68.1 °F 29.89 in Calm     93 % 0.00 in
05:24 70.1 °F 68.0 °F 29.88 in Calm     93 % 0.00 in
05:29 70.0 °F 67.9 °F 29.88 in Calm     93 % 0.00 in
05:35 69.9 °F 67.8 °F 29.88 in Calm     93 % 0.00 in
05:40 69.8 °F 67.7 °F 29.89 in Calm     93 % 0.00 in
05:45 69.7 °F 67.6 °F 29.89 in Calm     93 % 0.00 in
05:50 69.6 °F 67.5 °F 29.89 in Calm     93 % 0.00 in
05:55 69.5 °F 67.7 °F 29.89 in North 0.2 mph 1.2 mph 94 % 0.00 in
06:00 69.4 °F 67.6 °F 29.89 in Calm     94 % 0.00 in
06:05 69.4 °F 67.6 °F 29.90 in Calm     94 % 0.00 in
06:10 69.3 °F 67.5 °F 29.90 in Calm     94 % 0.00 in
06:15 69.2 °F 67.4 °F 29.90 in Calm   1.2 mph 94 % 0.00 in
06:20 69.1 °F 67.3 °F 29.89 in Calm     94 % 0.00 in
06:26 69.1 °F 67.3 °F 29.89 in Calm     94 % 0.00 in
06:31 69.0 °F 67.2 °F 29.89 in Calm   1.0 mph 94 % 0.00 in
06:36 69.0 °F 67.2 °F 29.89 in Calm     94 % 0.00 in
06:41 68.9 °F 67.1 °F 29.89 in Calm     94 % 0.00 in
06:46 68.8 °F 67.0 °F 29.90 in Calm     94 % 0.00 in
06:51 68.7 °F 66.9 °F 29.90 in Calm     94 % 0.00 in
06:56 68.6 °F 66.8 °F 29.90 in Calm     94 % 0.00 in
07:01 68.5 °F 66.7 °F 29.90 in Calm     94 % 0.00 in
07:06 68.5 °F 66.7 °F 29.90 in Calm   1.0 mph 94 % 0.00 in
07:11 68.5 °F 67.0 °F 29.90 in Calm     95 % 0.00 in
07:16 68.5 °F 67.0 °F 29.89 in Calm     95 % 0.00 in
07:21 68.5 °F 67.0 °F 29.89 in Calm     95 % 0.00 in
07:26 68.5 °F 67.0 °F 29.89 in Calm     95 % 0.00 in
07:31 68.5 °F 67.0 °F 29.90 in Calm     95 % 0.00 in
07:36 68.6 °F 67.4 °F 29.89 in Calm     96 % 0.00 in
07:41 68.6 °F 67.4 °F 29.89 in Calm     96 % 0.00 in
07:47 68.8 °F 67.6 °F 29.90 in Calm     96 % 0.00 in
07:52 68.9 °F 67.7 °F 29.89 in Calm     96 % 0.00 in
07:57 69.2 °F 68.3 °F 29.90 in Calm     97 % 0.00 in
08:02 69.4 °F 68.5 °F 29.90 in Calm     97 % 0.00 in
08:07 69.7 °F 68.8 °F 29.89 in Calm   1.0 mph 97 % 0.00 in
08:12 69.9 °F 69.0 °F 29.89 in North 0.3 mph 2.0 mph 97 % 0.00 in
08:17 70.1 °F 69.2 °F 29.89 in North 0.2 mph 1.2 mph 97 % 0.00 in
08:22 70.3 °F 69.4 °F 29.89 in North 0.1 mph 1.2 mph 97 % 0.00 in
08:27 70.5 °F 69.6 °F 29.89 in North 0.8 mph 3.5 mph 97 % 0.00 in
08:32 70.6 °F 69.7 °F 29.89 in North 1.0 mph 2.3 mph 97 % 0.00 in
08:37 70.8 °F 69.9 °F 29.89 in North 0.5 mph 3.5 mph 97 % 0.00 in
08:42 70.9 °F 70.0 °F 29.89 in North 1.0 mph 3.5 mph 97 % 0.00 in
08:48 71.1 °F 70.2 °F 29.90 in North 0.4 mph 3.5 mph 97 % 0.00 in
08:53 71.3 °F 70.4 °F 29.90 in North 1.9 mph 3.5 mph 97 % 0.00 in
08:58 71.4 °F 70.5 °F 29.90 in North 0.3 mph 1.2 mph 97 % 0.00 in
09:03 71.6 °F 70.4 °F 29.90 in North 0.1 mph 1.2 mph 96 % 0.00 in
09:08 71.9 °F 70.7 °F 29.90 in North 0.1 mph 3.5 mph 96 % 0.00 in
09:13 72.1 °F 70.9 °F 29.90 in North 0.4 mph 1.2 mph 96 % 0.00 in
09:18 72.2 °F 70.7 °F 29.90 in North 0.1 mph 1.2 mph 95 % 0.00 in
09:23 72.4 °F 70.9 °F 29.90 in Calm   1.2 mph 95 % 0.00 in
09:28 72.6 °F 70.8 °F 29.90 in NW 0.6 mph 3.5 mph 94 % 0.00 in
09:33 72.9 °F 71.1 °F 29.90 in WNW 1.2 mph 4.0 mph 94 % 0.00 in
09:39 73.1 °F 71.0 °F 29.90 in WNW 0.4 mph 3.5 mph 93 % 0.00 in
09:49 73.7 °F 71.2 °F 29.90 in NW 3.4 mph 4.6 mph 92 % 0.00 in
09:54 74.1 °F 71.6 °F 29.91 in NW 3.0 mph 5.8 mph 92 % 0.00 in
09:59 74.4 °F 71.6 °F 29.90 in West 2.4 mph 4.0 mph 91 % 0.00 in
10:04 74.6 °F 71.5 °F 29.90 in WNW 2.7 mph 3.5 mph 90 % 0.00 in
10:09 74.9 °F 71.4 °F 29.90 in NW 2.3 mph 3.5 mph 89 % 0.00 in
10:14 75.1 °F 71.3 °F 29.90 in WNW 1.1 mph 4.6 mph 88 % 0.00 in
10:19 75.2 °F 71.4 °F 29.90 in NNE 1.1 mph 4.0 mph 88 % 0.00 in
10:24 75.4 °F 71.6 °F 29.90 in NNE 1.5 mph 3.5 mph 88 % 0.00 in
10:30 75.6 °F 71.8 °F 29.90 in NNE 3.1 mph 6.0 mph 88 % 0.00 in
10:35 75.7 °F 71.9 °F 29.89 in NW 0.5 mph 4.6 mph 88 % 0.00 in
10:40 75.9 °F 72.1 °F 29.90 in NW 0.6 mph 2.3 mph 88 % 0.00 in
10:50 76.7 °F 73.2 °F 29.89 in WNW 1.2 mph 3.5 mph 89 % 0.00 in
10:55 77.2 °F 72.7 °F 29.89 in SW 2.2 mph 3.5 mph 86 % 0.00 in
11:00 77.7 °F 73.2 °F 29.89 in NW 0.8 mph 3.5 mph 86 % 0.00 in
11:05 78.4 °F 73.2 °F 29.88 in NNE 1.1 mph 3.5 mph 84 % 0.00 in
11:10 79.0 °F 73.7 °F 29.88 in NNW 1.3 mph 3.5 mph 84 % 0.00 in
11:15 79.9 °F 74.3 °F 29.88 in NE 3.7 mph 4.6 mph 83 % 0.00 in
11:20 81.0 °F 74.2 °F 29.88 in North 2.5 mph 5.8 mph 80 % 0.00 in
11:26 81.8 °F 74.6 °F 29.88 in NNE 0.7 mph 2.3 mph 79 % 0.00 in
11:31 82.6 °F 74.7 °F 29.88 in WNW 1.5 mph 4.6 mph 77 % 0.00 in
11:36 83.2 °F 74.4 °F 29.88 in North 2.4 mph 4.0 mph 75 % 0.00 in
11:46 84.2 °F 74.2 °F 29.88 in NNE 1.8 mph 3.5 mph 72 % 0.00 in
11:51 84.5 °F 74.5 °F 29.88 in NNW 2.9 mph 4.6 mph 72 % 0.00 in
11:56 84.7 °F 73.8 °F 29.88 in NW 0.9 mph 3.0 mph 70 % 0.00 in
12:01 84.8 °F 73.9 °F 29.87 in NNE 2.6 mph 3.5 mph 70 % 0.00 in
12:06 84.9 °F 74.4 °F 29.88 in North 1.1 mph 3.5 mph 71 % 0.00 in
12:11 85.3 °F 75.2 °F 29.87 in WNW 1.7 mph 3.5 mph 72 % 0.00 in
12:16 85.6 °F 74.3 °F 29.87 in WNW 1.1 mph 3.5 mph 69 % 0.00 in
12:22 86.0 °F 75.5 °F 29.87 in North 0.5 mph 4.0 mph 71 % 0.00 in
12:27 86.4 °F 75.0 °F 29.87 in NW 1.2 mph 3.5 mph 69 % 0.00 in
12:32 86.6 °F 75.2 °F 29.87 in NNE 2.4 mph 5.8 mph 69 % 0.00 in
12:37 87.0 °F 74.7 °F 29.87 in North 1.5 mph 3.5 mph 67 % 0.00 in
12:42 87.1 °F 74.4 °F 29.86 in North 2.5 mph 3.5 mph 66 % 0.00 in
12:52 86.4 °F 74.1 °F 29.86 in WNW 0.4 mph 1.2 mph 67 % 0.00 in
12:57 86.0 °F 74.6 °F 29.86 in NW 1.2 mph 3.5 mph 69 % 0.00 in
13:02 85.7 °F 74.4 °F 29.86 in NNW 0.9 mph 2.3 mph 69 % 0.00 in
13:07 85.8 °F 74.9 °F 29.86 in NNW 1.5 mph 3.0 mph 70 % 0.00 in
13:13 85.9 °F 75.0 °F 29.85 in NNW 0.2 mph 1.2 mph 70 % 0.00 in
13:18 85.7 °F 74.8 °F 29.85 in NE 2.1 mph 3.5 mph 70 % 0.00 in
13:28 85.8 °F 74.9 °F 29.85 in NNE 0.3 mph 2.3 mph 70 % 0.00 in
13:33 86.2 °F 75.3 °F 29.85 in ENE 1.9 mph 3.5 mph 70 % 0.00 in
13:38 86.3 °F 75.8 °F 29.84 in ENE 1.1 mph 2.3 mph 71 % 0.00 in
13:43 86.4 °F 75.5 °F 29.84 in NNE 2.3 mph 4.0 mph 70 % 0.00 in
13:48 86.6 °F 75.6 °F 29.84 in Calm     70 % 0.00 in
13:53 86.9 °F 75.9 °F 29.84 in ENE 0.3 mph 1.0 mph 70 % 0.00 in
14:04 86.9 °F 73.7 °F 29.83 in NE 1.2 mph 2.3 mph 65 % 0.00 in
14:09 86.7 °F 75.3 °F 29.83 in Calm   3.5 mph 69 % 0.00 in
14:14 87.0 °F 75.2 °F 29.83 in NNE 0.9 mph 3.5 mph 68 % 0.00 in
14:19 87.2 °F 75.3 °F 29.83 in NNE 0.7 mph 2.3 mph 68 % 0.00 in
14:34 87.9 °F 75.6 °F 29.82 in WNW 0.6 mph 1.2 mph 67 % 0.00 in
14:39 88.5 °F 75.7 °F 29.82 in North 1.3 mph 3.0 mph 66 % 0.00 in
14:44 88.8 °F 74.6 °F 29.82 in SW 1.4 mph 5.8 mph 63 % 0.00 in
14:49 89.0 °F 74.8 °F 29.82 in SE 0.7 mph 1.2 mph 63 % 0.00 in
14:55 89.3 °F 75.5 °F 29.82 in ENE 1.0 mph 3.5 mph 64 % 0.00 in
15:00 89.6 °F 75.8 °F 29.81 in SW 1.1 mph 4.6 mph 64 % 0.00 in
15:05 90.0 °F 75.2 °F 29.81 in SW 3.1 mph 4.6 mph 62 % 0.00 in
15:10 90.3 °F 75.0 °F 29.81 in WNW 0.2 mph 3.0 mph 61 % 0.00 in
15:15 90.6 °F 75.3 °F 29.80 in SW 0.1 mph 2.3 mph 61 % 0.00 in
15:20 90.8 °F 75.5 °F 29.80 in NW 0.2 mph 1.2 mph 61 % 0.00 in
15:25 91.0 °F 75.2 °F 29.80 in SE 0.1 mph 1.2 mph 60 % 0.00 in
15:30 91.0 °F 75.7 °F 29.80 in NNE 0.9 mph 2.3 mph 61 % 0.00 in
15:35 90.9 °F 74.6 °F 29.79 in SW 3.8 mph 5.0 mph 59 % 0.00 in
15:40 90.9 °F 74.1 °F 29.79 in SSE 1.3 mph 3.5 mph 58 % 0.00 in
15:45 90.8 °F 74.5 °F 29.79 in West 2.0 mph 6.0 mph 59 % 0.00 in
15:50 90.8 °F 75.0 °F 29.79 in WSW 3.2 mph 4.6 mph 60 % 0.00 in
15:55 90.8 °F 74.5 °F 29.79 in WSW 1.0 mph 7.0 mph 59 % 0.00 in
16:01 90.8 °F 74.0 °F 29.79 in SSE 0.7 mph 3.5 mph 58 % 0.00 in
16:06 90.8 °F 74.5 °F 29.79 in WSW 2.0 mph 6.0 mph 59 % 0.00 in
16:11 90.7 °F 74.9 °F 29.79 in SW 0.8 mph 3.5 mph 60 % 0.00 in
16:16 90.6 °F 74.3 °F 29.78 in SSE 1.0 mph 2.3 mph 59 % 0.00 in
16:21 90.1 °F 74.3 °F 29.78 in WSW 0.5 mph 2.3 mph 60 % 0.00 in
16:26 90.0 °F 74.2 °F 29.78 in SE 1.8 mph 3.5 mph 60 % 0.00 in
16:31 89.8 °F 74.6 °F 29.78 in SW 2.0 mph 7.0 mph 61 % 0.00 in
16:36 89.8 °F 74.1 °F 29.78 in WSW 3.9 mph 4.6 mph 60 % 0.00 in
16:41 89.6 °F 73.9 °F 29.78 in SSW 0.3 mph 1.2 mph 60 % 0.00 in
16:46 89.6 °F 74.4 °F 29.78 in SW 2.1 mph 5.0 mph 61 % 0.00 in
16:51 89.6 °F 73.9 °F 29.78 in SW 2.6 mph 6.9 mph 60 % 0.00 in
16:56 89.5 °F 74.3 °F 29.78 in SSW 1.9 mph 4.0 mph 61 % 0.00 in
17:02 89.2 °F 74.5 °F 29.78 in SW 1.8 mph 3.5 mph 62 % 0.00 in
17:07 89.1 °F 74.4 °F 29.78 in SW 0.8 mph 2.3 mph 62 % 0.00 in
17:12 89.0 °F 73.8 °F 29.77 in SSW 1.2 mph 3.5 mph 61 % 0.00 in
17:17 88.7 °F 74.0 °F 29.77 in South 1.6 mph 3.5 mph 62 % 0.00 in
17:22 87.7 °F 73.5 °F 29.77 in SE 1.6 mph 7.0 mph 63 % 0.00 in
17:27 86.8 °F 73.6 °F 29.77 in SW 2.5 mph 4.0 mph 65 % 0.00 in
17:32 85.9 °F 72.8 °F 29.77 in South 0.8 mph 3.5 mph 65 % 0.00 in
17:37 85.3 °F 72.6 °F 29.78 in SSE 1.6 mph 3.5 mph 66 % 0.00 in
17:42 84.6 °F 72.9 °F 29.78 in SE 0.7 mph 8.1 mph 68 % 0.00 in
17:47 84.0 °F 72.7 °F 29.77 in SW 0.5 mph 3.5 mph 69 % 0.00 in
17:53 83.5 °F 72.7 °F 29.77 in SE 2.0 mph 3.5 mph 70 % 0.00 in
17:58 83.0 °F 72.2 °F 29.77 in SW 3.2 mph 6.9 mph 70 % 0.00 in
18:03 82.6 °F 72.2 °F 29.77 in SE 1.9 mph 5.8 mph 71 % 0.00 in
18:08 82.2 °F 72.3 °F 29.77 in SE 4.3 mph 6.9 mph 72 % 0.00 in
18:18 81.6 °F 72.1 °F 29.77 in SSE 0.5 mph 3.5 mph 73 % 0.00 in
18:23 81.3 °F 72.2 °F 29.78 in SSE 1.5 mph 2.3 mph 74 % 0.00 in
18:28 81.0 °F 71.9 °F 29.78 in SSE 2.6 mph 11.5 mph 74 % 0.00 in
18:39 80.2 °F 71.9 °F 29.78 in SE 1.7 mph 3.5 mph 76 % 0.00 in
18:44 79.9 °F 72.0 °F 29.78 in SE 2.4 mph 4.6 mph 77 % 0.00 in
18:49 79.6 °F 71.8 °F 29.78 in SSE 1.8 mph 4.6 mph 77 % 0.00 in
18:54 79.2 °F 71.7 °F 29.78 in SE 1.2 mph 5.8 mph 78 % 0.00 in
19:04 78.7 °F 71.6 °F 29.78 in SSE 0.9 mph 3.5 mph 79 % 0.00 in
19:09 78.3 °F 71.6 °F 29.78 in SSW 1.2 mph 3.5 mph 80 % 0.00 in
19:19 77.8 °F 71.5 °F 29.79 in South 3.4 mph 5.8 mph 81 % 0.00 in
19:24 77.5 °F 71.6 °F 29.78 in SSE 1.6 mph 6.9 mph 82 % 0.00 in
19:30 77.3 °F 71.7 °F 29.79 in SE 2.6 mph 5.0 mph 83 % 0.00 in
19:35 77.2 °F 71.6 °F 29.78 in South 1.8 mph 4.6 mph 83 % 0.00 in
19:40 77.1 °F 71.5 °F 29.79 in SE 1.5 mph 5.8 mph 83 % 0.00 in
19:45 77.0 °F 71.8 °F 29.79 in SSW 1.3 mph 3.5 mph 84 % 0.00 in
19:50 76.8 °F 71.6 °F 29.79 in SSE 1.8 mph 3.5 mph 84 % 0.00 in
19:55 76.7 °F 71.8 °F 29.79 in SSW 1.5 mph 5.0 mph 85 % 0.00 in
20:00 76.6 °F 72.1 °F 29.79 in South 2.2 mph 6.9 mph 86 % 0.00 in
20:05 76.5 °F 72.0 °F 29.79 in SE 1.3 mph 5.8 mph 86 % 0.00 in
20:10 76.4 °F 72.2 °F 29.79 in SSE 0.8 mph 3.5 mph 87 % 0.00 in
20:15 76.3 °F 72.1 °F 29.79 in SSE 1.1 mph 3.5 mph 87 % 0.00 in
20:21 76.3 °F 72.1 °F 29.79 in SSW 3.4 mph 6.9 mph 87 % 0.00 in
20:26 76.2 °F 72.1 °F 29.79 in South 1.0 mph 4.0 mph 87 % 0.00 in
20:31 76.2 °F 72.4 °F 29.79 in South 1.0 mph 4.0 mph 88 % 0.00 in
20:36 76.2 °F 72.4 °F 29.79 in SSE 1.1 mph 3.5 mph 88 % 0.00 in
20:41 76.2 °F 72.4 °F 29.79 in South 1.0 mph 4.0 mph 88 % 0.00 in
20:46 76.2 °F 72.7 °F 29.79 in SSE 1.0 mph 4.0 mph 89 % 0.00 in
20:51 76.2 °F 72.7 °F 29.79 in SSW 1.1 mph 3.5 mph 89 % 0.00 in
20:56 76.2 °F 72.7 °F 29.79 in SSE 1.0 mph 5.0 mph 89 % 0.00 in
21:01 76.2 °F 72.7 °F 29.79 in South 1.7 mph 4.6 mph 89 % 0.00 in
21:06 76.2 °F 72.7 °F 29.79 in SSW 1.4 mph 4.6 mph 89 % 0.00 in
21:11 76.2 °F 72.7 °F 29.79 in SSE 1.0 mph 3.5 mph 89 % 0.00 in
21:16 76.3 °F 72.8 °F 29.79 in SSE 1.8 mph 3.5 mph 89 % 0.00 in
21:21 76.3 °F 73.1 °F 29.79 in South 1.9 mph 3.5 mph 90 % 0.00 in
21:26 76.3 °F 73.1 °F 29.79 in SW 1.8 mph 3.5 mph 90 % 0.00 in
21:31 76.4 °F 73.2 °F 29.79 in SW 0.4 mph 3.5 mph 90 % 0.00 in
21:41 76.4 °F 73.2 °F 29.79 in SSW 2.4 mph 2.4 mph 90 % 0.00 in
21:46 76.5 °F 73.3 °F 29.79 in SSW 0.9 mph 3.5 mph 90 % 0.00 in
21:52 76.6 °F 73.4 °F 29.79 in WSW 1.1 mph 3.5 mph 90 % 0.00 in
21:57 76.6 °F 73.4 °F 29.79 in WSW 2.1 mph 4.6 mph 90 % 0.00 in
22:02 76.7 °F 73.5 °F 29.80 in WSW 0.9 mph 2.3 mph 90 % 0.00 in
22:07 76.7 °F 73.5 °F 29.80 in Calm   1.2 mph 90 % 0.00 in
22:17 76.8 °F 73.6 °F 29.80 in Calm     90 % 0.00 in
22:22 76.8 °F 73.6 °F 29.80 in Calm     90 % 0.00 in
22:27 76.8 °F 73.6 °F 29.80 in WSW 0.1 mph 1.0 mph 90 % 0.00 in
22:32 76.8 °F 73.6 °F 29.80 in Calm   2.3 mph 90 % 0.00 in
22:37 76.8 °F 73.6 °F 29.80 in WSW 0.1 mph 2.3 mph 90 % 0.00 in
22:43 76.8 °F 73.6 °F 29.80 in Calm     90 % 0.00 in
22:48 76.7 °F 73.2 °F 29.80 in WSW 0.2 mph 2.3 mph 89 % 0.00 in
22:53 76.7 °F 73.5 °F 29.80 in Calm     90 % 0.00 in
22:58 76.7 °F 73.5 °F 29.80 in Calm     90 % 0.00 in
23:03 76.6 °F 73.4 °F 29.80 in Calm     90 % 0.00 in
23:08 76.6 °F 73.4 °F 29.80 in Calm     90 % 0.00 in
23:13 76.5 °F 73.3 °F 29.80 in Calm     90 % 0.00 in
23:18 76.5 °F 73.3 °F 29.80 in Calm     90 % 0.00 in
23:23 76.4 °F 73.2 °F 29.80 in Calm   1.0 mph 90 % 0.00 in
23:28 76.4 °F 73.2 °F 29.80 in Calm   1.2 mph 90 % 0.00 in
23:34 76.3 °F 73.1 °F 29.80 in Calm     90 % 0.00 in
23:39 76.3 °F 73.1 °F 29.79 in Calm   1.2 mph 90 % 0.00 in
23:44 76.3 °F 73.1 °F 29.79 in Calm     90 % 0.00 in
23:49 76.2 °F 73.1 °F 29.79 in Calm     90 % 0.00 in
23:54 76.2 °F 73.4 °F 29.79 in Calm     91 % 0.00 in
23:59 76.2 °F 73.4 °F 29.79 in NNW 1.2 mph 3.0 mph 91 % 0.00 in
Crab Meadow Weather
Compliments of Weather Underground - 2.75 mb

Script developed by  Jim McMurry - jmcmurry@mwt.net Adapted for the template by  Wim van der Kuil - Leuven-Template.eu

Lightning: Lightning is equivalent to the electric power of 100 million light bulbs in your face.